createdAt,value
2022-11-16T00:02:24.233Z,13.50
2022-11-16T00:07:16.572Z,14.93
2022-11-16T00:12:11.119Z,13.20
2022-11-16T00:17:04.414Z,12.77
2022-11-16T00:21:56.854Z,12.90
2022-11-16T00:26:50.290Z,11.27
2022-11-16T00:31:44.428Z,14.13
2022-11-16T00:36:36.707Z,11.43
2022-11-16T00:41:29.325Z,10.87
2022-11-16T00:46:23.124Z,11.40
2022-11-16T00:51:15.506Z,10.93
2022-11-16T00:56:08.279Z,9.40
2022-11-16T01:01:09.572Z,9.93
2022-11-16T01:06:07.221Z,10.13
2022-11-16T01:11:19.622Z,9.13
2022-11-16T01:16:17.661Z,11.17
2022-11-16T01:21:11.290Z,9.97
2022-11-16T01:26:03.969Z,8.53
2022-11-16T01:31:00.483Z,10.70
2022-11-16T01:35:54.809Z,10.07
2022-11-16T01:40:49.312Z,9.93
2022-11-16T01:45:42.543Z,10.13
2022-11-16T01:50:37.204Z,9.57
2022-11-16T01:55:32.421Z,12.63
2022-11-16T02:08:25.484Z,10.10
2022-11-16T02:13:29.152Z,11.63
2022-11-16T02:18:38.079Z,11.63
2022-11-16T02:24:08.381Z,11.63
2022-11-16T02:29:30.502Z,12.70
2022-11-16T02:34:31.945Z,13.47
2022-11-16T02:39:27.868Z,10.83
2022-11-16T02:44:34.985Z,9.87
2022-11-16T02:49:29.805Z,10.17
2022-11-16T02:54:50.729Z,12.70
2022-11-16T02:59:49.228Z,9.47
2022-11-16T03:05:06.581Z,12.03
2022-11-16T03:10:12.013Z,10.97
2022-11-16T03:15:12.980Z,10.40
2022-11-16T03:20:20.929Z,11.43
2022-11-16T03:30:27.213Z,9.40
2022-11-16T03:35:31.134Z,9.23
2022-11-16T03:40:45.351Z,9.43
2022-11-16T03:45:39.246Z,9.53
2022-11-16T03:50:34.170Z,8.00
2022-11-16T03:55:27.688Z,8.40
2022-11-16T04:00:23.348Z,10.33
2022-11-16T04:05:37.277Z,7.83
2022-11-16T04:10:49.915Z,9.77
2022-11-16T04:16:02.018Z,8.37
2022-11-16T04:21:13.475Z,7.73
2022-11-16T04:26:08.669Z,8.67
2022-11-16T04:31:23.574Z,9.47
2022-11-16T04:36:50.321Z,8.77
2022-11-16T04:42:05.476Z,7.80
2022-11-16T04:47:08.740Z,8.03
2022-11-16T04:52:07.433Z,8.57
2022-11-16T04:57:05.115Z,8.63
2022-11-16T05:02:09.911Z,8.80
2022-11-16T05:07:19.035Z,7.30
2022-11-16T05:12:25.646Z,7.07
2022-11-16T05:17:23.141Z,6.60
2022-11-16T05:22:15.801Z,6.93
2022-11-16T05:27:11.951Z,5.60
2022-11-16T05:32:09.023Z,6.23
2022-11-16T05:37:01.551Z,6.30
2022-11-16T05:41:56.249Z,5.90
2022-11-16T05:46:49.658Z,7.20
2022-11-16T05:51:56.888Z,6.10
2022-11-16T05:56:50.353Z,5.30
2022-11-16T06:01:47.827Z,6.50
2022-11-16T06:06:40.992Z,6.20
2022-11-16T06:11:36.324Z,5.50
2022-11-16T06:16:30.755Z,6.47
2022-11-16T06:21:25.351Z,6.20
2022-11-16T06:26:38.285Z,7.60
2022-11-16T06:31:32.010Z,6.60
2022-11-16T06:36:27.479Z,6.40
2022-11-16T06:41:20.306Z,8.10
2022-11-16T06:46:14.787Z,7.37
2022-11-16T06:51:07.550Z,7.57
2022-11-16T06:56:07.235Z,6.63
2022-11-16T07:01:10.043Z,6.27
2022-11-16T07:06:12.368Z,7.47
2022-11-16T07:11:08.241Z,7.67
2022-11-16T07:16:02.588Z,6.27
2022-11-16T07:20:54.925Z,6.83
2022-11-16T07:25:47.842Z,7.73
2022-11-16T07:30:50.208Z,6.60
2022-11-16T07:35:49.539Z,8.13
2022-11-16T07:40:45.575Z,7.53
2022-11-16T07:45:41.426Z,6.73
2022-11-16T07:50:36.865Z,8.63
2022-11-16T07:55:32.294Z,7.50
2022-11-16T08:00:26.901Z,7.77
2022-11-16T08:05:29.960Z,6.67
2022-11-16T08:10:23.411Z,5.60
2022-11-16T08:15:15.873Z,6.40
2022-11-16T08:20:09.808Z,6.93
2022-11-16T08:25:02.276Z,9.17
2022-11-16T08:29:54.606Z,8.83
2022-11-16T08:34:47.107Z,8.53
2022-11-16T08:39:40.558Z,8.13
2022-11-16T08:44:34.221Z,8.77
2022-11-16T08:49:30.578Z,7.73
2022-11-16T08:54:24.222Z,7.17
2022-11-16T08:59:17.061Z,7.60
2022-11-16T09:04:14.002Z,6.73
2022-11-16T09:09:09.397Z,7.50
2022-11-16T09:14:01.661Z,7.80
2022-11-16T09:18:55.133Z,7.83
2022-11-16T09:23:48.733Z,8.10
2022-11-16T09:28:41.682Z,7.83
2022-11-16T09:33:35.041Z,7.90
2022-11-16T09:38:46.627Z,7.33
2022-11-16T09:43:46.331Z,6.90
2022-11-16T09:48:40.294Z,5.97
2022-11-16T09:53:35.375Z,7.00
2022-11-16T09:58:48.272Z,6.97
2022-11-16T10:03:45.854Z,6.07
2022-11-16T10:08:56.962Z,5.73
2022-11-16T10:14:04.236Z,7.90
2022-11-16T10:19:04.968Z,6.37
2022-11-16T10:24:20.636Z,4.67
2022-11-16T10:29:40.136Z,4.40
2022-11-16T10:34:41.667Z,5.23
2022-11-16T10:39:34.508Z,5.27
2022-11-16T10:44:35.893Z,4.87
2022-11-16T10:49:42.800Z,5.40
2022-11-16T10:54:43.928Z,4.60
2022-11-16T10:59:46.066Z,3.93
2022-11-16T11:04:39.371Z,4.23
2022-11-16T11:09:36.962Z,3.70
2022-11-16T11:14:36.423Z,2.87
2022-11-16T11:19:30.532Z,3.13
2022-11-16T11:29:40.278Z,3.40
2022-11-16T11:34:41.939Z,2.87
2022-11-16T11:39:36.701Z,3.33
2022-11-16T11:44:38.456Z,3.57
2022-11-16T11:49:36.497Z,3.73
2022-11-16T11:54:41.738Z,2.90
2022-11-16T11:59:39.086Z,2.30
2022-11-16T12:05:07.222Z,2.77
2022-11-16T12:10:23.382Z,2.33
2022-11-16T12:15:33.362Z,2.43
2022-11-16T12:20:41.118Z,2.10
2022-11-16T12:26:01.520Z,2.60
2022-11-16T12:31:06.470Z,2.77
2022-11-16T12:36:15.294Z,2.20
2022-11-16T12:41:26.086Z,2.27
2022-11-16T12:46:35.026Z,2.50
2022-11-16T12:52:08.840Z,2.00
2022-11-16T12:57:38.847Z,2.63
2022-11-16T13:03:08.368Z,2.80
2022-11-16T13:08:14.120Z,3.47
2022-11-16T13:18:25.458Z,3.63
2022-11-16T13:23:50.014Z,2.90
2022-11-16T13:29:12.166Z,3.10
2022-11-16T13:34:29.672Z,4.23
2022-11-16T13:39:50.918Z,4.00
2022-11-16T13:44:51.522Z,4.73
2022-11-16T13:49:53.587Z,4.77
2022-11-16T13:54:52.600Z,5.93
2022-11-16T13:59:45.787Z,5.23
2022-11-16T14:05:04.274Z,5.50
2022-11-16T14:09:58.522Z,5.70
2022-11-16T14:15:15.776Z,5.23
2022-11-16T14:20:12.766Z,9.80
2022-11-16T14:25:38.694Z,6.20
2022-11-16T14:30:55.203Z,7.43
2022-11-16T14:35:54.081Z,9.67
2022-11-16T14:40:49.504Z,8.33
2022-11-16T14:45:46.358Z,7.27
2022-11-16T14:50:41.071Z,8.23
2022-11-16T14:55:43.001Z,12.80
2022-11-16T15:00:35.839Z,18.83
2022-11-16T15:05:32.839Z,8.37
2022-11-16T15:10:28.045Z,10.17
2022-11-16T15:15:30.144Z,12.40
2022-11-16T15:20:24.985Z,9.20
2022-11-16T15:25:51.973Z,11.23
2022-11-16T15:30:49.517Z,10.00
2022-11-16T15:35:41.716Z,13.30
2022-11-16T15:40:34.988Z,10.23
2022-11-16T15:45:28.423Z,11.83
2022-11-16T15:50:24.649Z,11.13
2022-11-16T15:55:25.795Z,11.00
2022-11-16T16:00:22.995Z,12.50
2022-11-16T16:05:33.966Z,11.20
2022-11-16T16:10:26.789Z,20.30
2022-11-16T16:15:41.395Z,26.70
2022-11-16T16:20:36.501Z,15.67
2022-11-16T16:25:34.148Z,12.03
2022-11-16T16:30:30.651Z,13.87
2022-11-16T16:35:25.278Z,11.80
2022-11-16T16:40:18.721Z,13.63
2022-11-16T16:45:42.062Z,13.83
2022-11-16T16:50:36.183Z,15.60
2022-11-16T16:55:32.865Z,13.80
2022-11-16T17:00:27.980Z,12.67
2022-11-16T17:05:20.651Z,14.77
2022-11-16T17:10:13.058Z,11.33
2022-11-16T17:15:05.901Z,13.13
2022-11-16T17:19:58.313Z,12.53
2022-11-16T17:24:51.247Z,12.27
2022-11-16T17:30:20.653Z,12.33
2022-11-16T17:35:13.018Z,17.03
2022-11-16T17:40:05.937Z,15.43
2022-11-16T17:44:58.161Z,38.13
2022-11-16T17:49:50.473Z,26.37
2022-11-16T17:54:47.120Z,18.27
2022-11-16T17:59:39.509Z,16.03
2022-11-16T18:04:31.686Z,16.63
2022-11-16T18:09:24.304Z,16.57
2022-11-16T18:14:16.480Z,13.73
2022-11-16T18:19:14.793Z,14.30
2022-11-16T18:24:07.489Z,11.93
2022-11-16T18:28:59.725Z,7.90
2022-11-16T18:33:54.786Z,6.87
2022-11-16T18:38:58.220Z,7.57
2022-11-16T18:43:55.398Z,4.80
2022-11-16T18:48:50.779Z,4.57
2022-11-16T18:53:43.147Z,5.80
2022-11-16T18:58:52.256Z,4.30
2022-11-16T19:03:48.369Z,4.00
2022-11-16T19:08:42.216Z,3.33
2022-11-16T19:13:37.019Z,4.33
2022-11-16T19:18:33.672Z,3.07
2022-11-16T19:23:28.837Z,3.77
2022-11-16T19:28:21.043Z,3.37
2022-11-16T19:33:19.540Z,4.10
2022-11-16T19:38:12.836Z,3.80
2022-11-16T19:43:05.422Z,3.30
2022-11-16T19:47:59.169Z,3.77
2022-11-16T19:52:55.659Z,3.30
2022-11-16T19:57:48.097Z,3.83
2022-11-16T20:02:40.353Z,3.67
2022-11-16T20:07:39.934Z,3.40
2022-11-16T20:12:34.569Z,3.63
2022-11-16T20:17:29.702Z,4.10
2022-11-16T20:22:23.052Z,3.00
2022-11-16T20:27:15.315Z,3.40
2022-11-16T20:32:07.470Z,4.90
2022-11-16T20:36:59.750Z,3.60
2022-11-16T20:41:52.034Z,3.93
2022-11-16T20:46:45.323Z,4.43
2022-11-16T20:51:40.958Z,3.93
2022-11-16T20:56:36.163Z,4.17
2022-11-16T21:01:31.586Z,4.00
2022-11-16T21:06:24.457Z,5.30
2022-11-16T21:11:19.347Z,3.73
2022-11-16T21:16:15.259Z,4.00
2022-11-16T21:21:15.166Z,4.57
2022-11-16T21:26:11.485Z,3.57
2022-11-16T21:31:11.164Z,3.87
2022-11-16T21:36:16.829Z,3.73
2022-11-16T21:41:11.106Z,4.17
2022-11-16T21:46:14.157Z,3.70
2022-11-16T21:51:08.677Z,4.07
2022-11-16T21:56:13.192Z,4.17
2022-11-16T22:01:05.611Z,4.87
2022-11-16T22:06:21.749Z,5.27
2022-11-16T22:11:15.199Z,3.97
2022-11-16T22:16:15.409Z,3.93
2022-11-16T22:21:08.306Z,4.50
2022-11-16T22:26:11.480Z,4.43
2022-11-16T22:31:07.444Z,3.90
2022-11-16T22:35:59.932Z,4.30
2022-11-16T22:40:53.430Z,3.93
2022-11-16T22:45:46.375Z,4.73
2022-11-16T22:50:38.514Z,3.37
2022-11-16T22:55:35.507Z,6.03
2022-11-16T23:00:27.587Z,3.83
2022-11-16T23:05:20.072Z,3.93
2022-11-16T23:10:12.327Z,3.30
2022-11-16T23:15:22.887Z,3.93
2022-11-16T23:20:33.717Z,3.77
2022-11-16T23:25:44.578Z,4.87
2022-11-16T23:30:37.314Z,4.20
2022-11-16T23:35:29.474Z,3.10
2022-11-16T23:40:24.675Z,4.00
2022-11-16T23:45:16.905Z,4.10
2022-11-16T23:50:09.392Z,3.33
2022-11-16T23:55:01.530Z,5.67
2022-11-16T23:59:53.702Z,3.40
